Time;durP1;ratioP1;P1;durP2;ratioP2;P2;SDS_P1;SDS_P2;PMS_P1;PMS_P2;Temp;Humidity;BMP_temperature;BMP_pressure;BME280_temperature;BME280_humidity;BME280_pressure;Samples;Min_cycle;Max_cycle;Signal;HPM_P1;HPM_P2
2021/08/04 00:02:01;;;;;;;6.60;5.95;;;;;;;;;;5095261;28;20186;-46
2021/08/04 00:04:26;;;;;;;6.90;5.45;;;;;;;;;;5093528;28;20200;-46
2021/08/04 00:06:52;;;;;;;7.03;5.88;;;;;;;;;;5079919;28;20549;-46
2021/08/04 00:09:18;;;;;;;5.55;4.60;;;;;;;;;;5105139;28;20189;-46
2021/08/04 00:11:45;;;;;;;5.65;4.60;;;;;;;;;;5095683;28;20240;-46
2021/08/04 00:14:11;;;;;;;5.43;4.80;;;;;;;;;;5089130;28;20171;-46
2021/08/04 00:16:37;;;;;;;7.50;4.82;;;;;;;;;;5089992;28;20181;-46
2021/08/04 00:19:03;;;;;;;4.93;4.53;;;;;;;;;;5114533;28;20165;-46
2021/08/04 00:21:30;;;;;;;4.43;4.00;;;;;;;;;;5115048;28;20173;-46
2021/08/04 00:23:56;;;;;;;5.15;4.63;;;;;;;;;;5103501;28;20192;-46
2021/08/04 00:26:22;;;;;;;4.80;4.40;;;;;;;;;;5088498;28;20185;-46
2021/08/04 00:28:48;;;;;;;7.57;4.57;;;;;;;;;;5077984;28;20227;-46
2021/08/04 00:31:13;;;;;;;4.53;4.13;;;;;;;;;;5094625;28;20272;-46
2021/08/04 00:33:39;;;;;;;3.80;3.50;;;;;;;;;;5093215;28;20261;-46
2021/08/04 00:36:05;;;;;;;4.68;3.83;;;;;;;;;;5075461;28;20179;-46
2021/08/04 00:38:31;;;;;;;4.40;3.97;;;;;;;;;;5088305;28;20177;-46
2021/08/04 00:40:58;;;;;;;4.30;3.90;;;;;;;;;;5101950;28;20224;-46
2021/08/04 00:43:24;;;;;;;4.43;4.03;;;;;;;;;;5092968;28;20190;-46
2021/08/04 00:45:50;;;;;;;4.63;4.10;;;;;;;;;;5091570;28;20197;-46
2021/08/04 00:48:17;;;;;;;4.57;3.38;;;;;;;;;;5087611;28;20193;-46
2021/08/04 00:50:43;;;;;;;3.70;3.40;;;;;;;;;;5112932;28;20579;-46
2021/08/04 00:53:22;;;;;;;4.07;3.47;;;;;;;;;;5088510;28;20183;-46
2021/08/04 00:55:48;;;;;;;3.88;3.58;;;;;;;;;;5089365;28;20185;-46
2021/08/04 00:58:15;;;;;;;3.58;3.28;;;;;;;;;;5093386;28;20238;-46
2021/08/04 01:00:42;;;;;;;3.67;3.38;;;;;;;;;;5091276;28;20603;-46
2021/08/04 01:03:09;;;;;;;4.00;3.60;;;;;;;;;;5085328;28;20201;-46
2021/08/04 01:05:54;;;;;;;3.97;3.33;;;;;;;;;;5089701;28;20569;-46
2021/08/04 01:08:23;;;;;;;5.45;3.42;;;;;;;;;;5100400;28;20564;-46
2021/08/04 01:10:50;;;;;;;4.03;3.65;;;;;;;;;;5093986;28;20198;-46
2021/08/04 01:13:21;;;;;;;4.03;2.95;;;;;;;;;;5094002;28;20162;-46
2021/08/04 01:15:49;;;;;;;4.82;2.67;;;;;;;;;;5081912;28;20467;-46
2021/08/04 01:18:24;;;;;;;5.10;3.00;;;;;;;;;;5092758;28;20166;-46
2021/08/04 01:20:50;;;;;;;4.97;2.97;;;;;;;;;;5080635;28;20320;-46
2021/08/04 01:23:43;;;;;;;3.33;3.03;;;;;;;;;;5111022;28;20200;-46
2021/08/04 01:26:11;;;;;;;3.85;3.38;;;;;;;;;;5081966;28;20564;-46
2021/08/04 01:28:44;;;;;;;4.53;3.25;;;;;;;;;;5092502;28;20598;-46
2021/08/04 01:31:12;;;;;;;3.38;3.08;;;;;;;;;;5078131;28;20198;-46
2021/08/04 01:33:40;;;;;;;3.58;3.10;;;;;;;;;;5084645;28;20189;-46
2021/08/04 01:36:07;;;;;;;3.55;3.25;;;;;;;;;;5095325;28;20191;-46
2021/08/04 01:38:34;;;;;;;3.28;2.97;;;;;;;;;;5110460;28;20189;-46
2021/08/04 01:41:00;;;;;;;3.42;3.13;;;;;;;;;;5097594;28;20235;-46
2021/08/04 01:43:26;;;;;;;5.05;2.90;;;;;;;;;;5095831;28;20618;-46
2021/08/04 01:45:54;;;;;;;3.63;2.97;;;;;;;;;;5079269;28;20201;-46
2021/08/04 01:48:21;;;;;;;2.63;2.42;;;;;;;;;;5097759;28;20525;-46
2021/08/04 01:50:47;;;;;;;4.90;2.85;;;;;;;;;;5078507;28;20206;-46
2021/08/04 01:53:13;;;;;;;2.97;2.72;;;;;;;;;;5093702;28;20206;-46
2021/08/04 01:55:39;;;;;;;2.50;2.25;;;;;;;;;;5089085;28;20196;-46
2021/08/04 01:58:05;;;;;;;3.40;2.67;;;;;;;;;;5096994;28;20576;-46
2021/08/04 02:00:31;;;;;;;3.42;2.30;;;;;;;;;;5077665;28;20211;-46
2021/08/04 02:02:58;;;;;;;2.63;2.42;;;;;;;;;;5082238;28;20186;-46
2021/08/04 02:05:24;;;;;;;3.60;2.45;;;;;;;;;;5096058;28;20185;-46
2021/08/04 02:07:59;;;;;;;4.47;2.60;;;;;;;;;;5086448;28;20181;-46
2021/08/04 02:10:48;;;;;;;4.25;2.55;;;;;;;;;;5097680;28;20168;-46
2021/08/04 02:13:20;;;;;;;2.97;2.38;;;;;;;;;;5068060;28;20190;-46
2021/08/04 02:15:47;;;;;;;3.35;2.60;;;;;;;;;;5077665;28;20439;-46
2021/08/04 02:18:15;;;;;;;3.08;2.70;;;;;;;;;;5086594;28;20173;-46
2021/08/04 02:20:45;;;;;;;2.72;2.30;;;;;;;;;;5102230;28;20238;-46
2021/08/04 02:23:13;;;;;;;5.40;2.78;;;;;;;;;;5096690;28;20174;-45
2021/08/04 02:25:57;;;;;;;2.22;2.00;;;;;;;;;;5096790;28;20198;-46
2021/08/04 02:28:25;;;;;;;2.95;2.28;;;;;;;;;;5079349;28;20210;-46
2021/08/04 02:30:52;;;;;;;2.30;2.10;;;;;;;;;;5096311;28;20240;-46
2021/08/04 02:33:18;;;;;;;3.53;2.53;;;;;;;;;;5089552;28;20558;-46
2021/08/04 02:35:45;;;;;;;2.72;2.22;;;;;;;;;;5097923;28;20552;-46
2021/08/04 02:38:11;;;;;;;2.58;2.10;;;;;;;;;;5096651;28;20485;-46
2021/08/04 02:40:37;;;;;;;2.35;2.15;;;;;;;;;;5107074;28;20204;-46
2021/08/04 02:43:03;;;;;;;2.40;2.20;;;;;;;;;;5092922;28;20481;-46
2021/08/04 02:45:29;;;;;;;2.10;2.00;;;;;;;;;;5092930;28;20178;-46
2021/08/04 02:47:56;;;;;;;2.58;2.10;;;;;;;;;;5095690;28;20178;-46
2021/08/04 02:50:23;;;;;;;2.28;2.10;;;;;;;;;;5097826;28;20178;-46
2021/08/04 02:52:49;;;;;;;3.70;1.90;;;;;;;;;;5094865;28;20173;-46
2021/08/04 02:55:16;;;;;;;2.40;2.20;;;;;;;;;;5096213;28;20177;-46
2021/08/04 02:57:43;;;;;;;2.47;2.03;;;;;;;;;;5095001;28;20182;-46
2021/08/04 03:00:09;;;;;;;2.58;2.00;;;;;;;;;;5080497;28;20576;-46
2021/08/04 03:02:37;;;;;;;2.10;1.90;;;;;;;;;;5081248;28;20628;-46
2021/08/04 03:05:03;;;;;;;2.42;2.10;;;;;;;;;;5104958;28;20170;-46
2021/08/04 03:07:29;;;;;;;2.70;1.77;;;;;;;;;;5095660;28;20549;-46
2021/08/04 03:09:55;;;;;;;2.33;2.10;;;;;;;;;;5107815;28;20177;-46
2021/08/04 03:12:21;;;;;;;1.90;1.80;;;;;;;;;;5093018;28;20757;-46
2021/08/04 03:14:48;;;;;;;2.33;2.03;;;;;;;;;;5088923;28;20187;-46
2021/08/04 03:17:13;;;;;;;2.05;1.85;;;;;;;;;;5105812;28;20557;-46
2021/08/04 03:19:39;;;;;;;2.10;1.67;;;;;;;;;;5097590;28;20232;-46
2021/08/04 03:22:05;;;;;;;1.67;1.58;;;;;;;;;;5092264;28;20819;-46
2021/08/04 03:24:31;;;;;;;3.65;1.80;;;;;;;;;;5087050;28;20259;-46
2021/08/04 03:26:57;;;;;;;1.90;1.65;;;;;;;;;;5086741;28;20553;-47
2021/08/04 03:29:23;;;;;;;1.70;1.60;;;;;;;;;;5082816;28;20205;-46
2021/08/04 03:31:49;;;;;;;1.92;1.83;;;;;;;;;;5095387;28;20201;-46
2021/08/04 03:34:16;;;;;;;1.65;1.55;;;;;;;;;;5095049;28;20186;-46
2021/08/04 03:36:42;;;;;;;2.50;1.67;;;;;;;;;;5105854;28;20181;-46
2021/08/04 03:39:08;;;;;;;1.80;1.70;;;;;;;;;;5094421;28;20257;-46
2021/08/04 03:41:34;;;;;;;1.80;1.60;;;;;;;;;;5077714;28;20503;-46
2021/08/04 03:44:00;;;;;;;1.80;1.70;;;;;;;;;;5080357;28;20459;-46
2021/08/04 03:46:25;;;;;;;1.73;1.63;;;;;;;;;;5075204;28;20178;-46
2021/08/04 03:48:52;;;;;;;3.25;1.67;;;;;;;;;;5075830;28;20221;-46
2021/08/04 03:51:17;;;;;;;2.60;1.60;;;;;;;;;;5074986;28;20205;-46
2021/08/04 03:53:43;;;;;;;2.00;1.80;;;;;;;;;;5087346;28;20170;-46
2021/08/04 03:56:10;;;;;;;1.60;1.50;;;;;;;;;;5091558;28;20583;-46
2021/08/04 03:58:36;;;;;;;1.90;1.52;;;;;;;;;;5094096;28;20553;-45
2021/08/04 04:01:02;;;;;;;4.40;1.98;;;;;;;;;;5092855;28;20275;-46
2021/08/04 04:03:28;;;;;;;2.05;1.70;;;;;;;;;;5090301;28;20255;-46
2021/08/04 04:05:54;;;;;;;1.85;1.75;;;;;;;;;;5081718;28;20225;-46
2021/08/04 04:08:20;;;;;;;1.50;1.40;;;;;;;;;;5095546;28;20455;-46
2021/08/04 04:10:46;;;;;;;1.50;1.40;;;;;;;;;;5104337;28;20270;-46
2021/08/04 04:13:12;;;;;;;2.17;1.63;;;;;;;;;;5092580;28;20596;-46
2021/08/04 04:15:38;;;;;;;1.65;1.55;;;;;;;;;;5092485;28;20182;-47
2021/08/04 04:18:04;;;;;;;3.03;1.60;;;;;;;;;;5094481;28;20559;-46
2021/08/04 04:20:30;;;;;;;1.70;1.60;;;;;;;;;;5094322;28;20166;-46
2021/08/04 04:22:56;;;;;;;1.40;1.30;;;;;;;;;;5091343;28;20442;-46
2021/08/04 04:25:22;;;;;;;1.92;1.75;;;;;;;;;;5085658;28;20194;-46
2021/08/04 04:27:48;;;;;;;1.70;1.52;;;;;;;;;;5083843;28;20181;-46
2021/08/04 04:30:14;;;;;;;1.85;1.65;;;;;;;;;;5094515;28;20230;-46
2021/08/04 04:32:40;;;;;;;1.75;1.60;;;;;;;;;;5094663;28;20483;-46
2021/08/04 04:35:06;;;;;;;2.13;1.77;;;;;;;;;;5088842;28;20632;-46
2021/08/04 04:37:32;;;;;;;2.55;1.30;;;;;;;;;;5075984;28;20201;-46
2021/08/04 04:39:58;;;;;;;1.63;1.40;;;;;;;;;;5100808;28;20166;-46
2021/08/04 04:42:24;;;;;;;1.90;1.55;;;;;;;;;;5094656;28;20211;-46
2021/08/04 04:44:50;;;;;;;3.83;1.60;;;;;;;;;;5082616;28;20178;-46
2021/08/04 04:47:16;;;;;;;1.70;1.60;;;;;;;;;;5074353;28;20459;-46
2021/08/04 04:49:42;;;;;;;1.75;1.65;;;;;;;;;;5074801;28;20263;-46
2021/08/04 04:52:08;;;;;;;2.30;1.70;;;;;;;;;;5092046;28;20329;-46
2021/08/04 04:54:34;;;;;;;2.55;1.67;;;;;;;;;;5087420;28;20186;-46
2021/08/04 04:57:00;;;;;;;2.38;1.42;;;;;;;;;;5086555;28;20579;-46
2021/08/04 04:59:27;;;;;;;2.95;1.65;;;;;;;;;;5081892;28;20258;-46
2021/08/04 05:01:52;;;;;;;1.98;1.52;;;;;;;;;;5094328;28;20239;-46
2021/08/04 05:04:18;;;;;;;2.22;1.60;;;;;;;;;;5090455;28;20186;-46
2021/08/04 05:06:44;;;;;;;1.83;1.45;;;;;;;;;;5082651;28;20197;-46
2021/08/04 05:09:10;;;;;;;2.08;1.90;;;;;;;;;;5101794;28;20219;-46
2021/08/04 05:11:36;;;;;;;1.90;1.70;;;;;;;;;;5100419;28;20455;-46
2021/08/04 05:14:02;;;;;;;2.35;1.80;;;;;;;;;;5094582;28;20174;-46
2021/08/04 05:16:28;;;;;;;1.90;1.70;;;;;;;;;;5097730;28;20545;-46
2021/08/04 05:18:54;;;;;;;1.77;1.67;;;;;;;;;;5104903;28;20173;-46
2021/08/04 05:21:21;;;;;;;2.53;1.90;;;;;;;;;;5102284;28;20239;-45
2021/08/04 05:23:47;;;;;;;1.80;1.40;;;;;;;;;;5096586;28;20196;-46
2021/08/04 05:26:13;;;;;;;2.13;1.75;;;;;;;;;;5103541;28;20178;-46
2021/08/04 05:28:39;;;;;;;1.98;1.50;;;;;;;;;;5096240;28;20185;-46
2021/08/04 05:31:05;;;;;;;3.67;1.50;;;;;;;;;;5079673;28;20198;-46
2021/08/04 05:33:31;;;;;;;2.85;1.65;;;;;;;;;;5082723;28;20184;-46
2021/08/04 05:35:57;;;;;;;1.92;1.70;;;;;;;;;;5097669;28;20265;-46
2021/08/04 05:38:24;;;;;;;2.22;2.08;;;;;;;;;;5098973;28;20213;-46
2021/08/04 05:40:50;;;;;;;1.45;1.35;;;;;;;;;;5106788;28;20193;-46
2021/08/04 05:43:16;;;;;;;1.70;1.60;;;;;;;;;;5094288;28;20204;-46
2021/08/04 05:45:42;;;;;;;2.75;1.70;;;;;;;;;;5095662;28;20189;-46
2021/08/04 05:48:08;;;;;;;2.38;1.60;;;;;;;;;;5097371;28;20197;-46
2021/08/04 05:50:35;;;;;;;3.35;1.38;;;;;;;;;;5114522;28;20184;-46
2021/08/04 05:53:02;;;;;;;1.60;1.50;;;;;;;;;;5110023;28;20178;-46
2021/08/04 05:55:28;;;;;;;2.92;1.30;;;;;;;;;;5108839;28;20185;-46
2021/08/04 05:57:54;;;;;;;2.45;1.30;;;;;;;;;;5096420;28;20194;-46
2021/08/04 06:00:20;;;;;;;2.05;1.60;;;;;;;;;;5081834;28;20175;-46
2021/08/04 06:02:46;;;;;;;2.88;1.55;;;;;;;;;;5076452;28;20421;-46
2021/08/04 06:05:12;;;;;;;3.58;1.80;;;;;;;;;;5090949;28;20185;-46
2021/08/04 06:07:38;;;;;;;2.78;1.40;;;;;;;;;;5097955;28;20174;-46
2021/08/04 06:10:04;;;;;;;2.75;1.50;;;;;;;;;;5108533;28;20174;-46
2021/08/04 06:12:32;;;;;;;2.70;1.27;;;;;;;;;;5097112;28;20201;-45
2021/08/04 06:14:58;;;;;;;1.50;1.35;;;;;;;;;;5084296;28;20191;-46
2021/08/04 06:17:24;;;;;;;3.47;1.40;;;;;;;;;;5075829;28;20635;-46
2021/08/04 06:19:50;;;;;;;2.67;1.30;;;;;;;;;;5075361;28;20170;-46
2021/08/04 06:22:15;;;;;;;1.95;1.45;;;;;;;;;;5081519;28;20173;-46
2021/08/04 06:24:41;;;;;;;2.50;1.80;;;;;;;;;;5102135;28;20483;-46
2021/08/04 06:27:07;;;;;;;3.08;1.38;;;;;;;;;;5096421;28;20182;-46
2021/08/04 06:29:33;;;;;;;1.83;1.52;;;;;;;;;;5096907;28;20182;-46
2021/08/04 06:31:59;;;;;;;1.63;1.23;;;;;;;;;;5096555;28;20196;-46
2021/08/04 06:34:25;;;;;;;3.05;1.40;;;;;;;;;;5096812;28;20178;-46
2021/08/04 06:36:51;;;;;;;3.58;1.20;;;;;;;;;;5105173;28;20188;-46
2021/08/04 06:39:17;;;;;;;3.05;1.45;;;;;;;;;;5104897;28;20264;-46
2021/08/04 06:41:43;;;;;;;3.88;1.40;;;;;;;;;;5096457;28;20552;-46
2021/08/04 06:44:09;;;;;;;1.77;1.30;;;;;;;;;;5096632;28;20448;-46
2021/08/04 06:46:36;;;;;;;2.13;1.20;;;;;;;;;;5096264;28;20248;-46
2021/08/04 06:49:03;;;;;;;7.13;1.80;;;;;;;;;;5095944;28;20602;-46
2021/08/04 06:51:29;;;;;;;4.32;1.55;;;;;;;;;;5104560;28;20466;-46
2021/08/04 06:53:55;;;;;;;3.58;1.50;;;;;;;;;;5106278;28;20201;-46
2021/08/04 06:56:21;;;;;;;1.30;1.20;;;;;;;;;;5096497;28;20181;-46
2021/08/04 06:58:47;;;;;;;2.03;1.30;;;;;;;;;;5095431;28;20176;-45
2021/08/04 07:01:13;;;;;;;1.95;1.67;;;;;;;;;;5095789;28;20219;-46
2021/08/04 07:03:40;;;;;;;3.50;1.50;;;;;;;;;;5096360;28;20178;-46
2021/08/04 07:06:06;;;;;;;1.42;1.33;;;;;;;;;;5096705;28;20174;-46
2021/08/04 07:08:32;;;;;;;1.52;1.42;;;;;;;;;;5100296;28;20188;-45
2021/08/04 07:10:58;;;;;;;3.30;1.48;;;;;;;;;;5103509;28;20194;-46
2021/08/04 07:13:24;;;;;;;2.03;1.42;;;;;;;;;;5096238;28;20520;-46
2021/08/04 07:15:51;;;;;;;2.95;1.88;;;;;;;;;;5076392;28;20171;-46
2021/08/04 07:18:17;;;;;;;2.03;1.60;;;;;;;;;;5075217;28;20171;-46
2021/08/04 07:20:43;;;;;;;1.27;1.15;;;;;;;;;;5095901;28;20202;-46
2021/08/04 07:23:09;;;;;;;2.17;1.40;;;;;;;;;;5099118;28;20178;-46
2021/08/04 07:25:35;;;;;;;1.60;1.20;;;;;;;;;;5106798;28;20193;-45
2021/08/04 07:28:01;;;;;;;1.40;1.30;;;;;;;;;;5095293;28;20180;-46
2021/08/04 07:30:27;;;;;;;2.78;1.73;;;;;;;;;;5079222;28;20257;-46
2021/08/04 07:32:53;;;;;;;1.95;1.20;;;;;;;;;;5078913;28;20512;-46
2021/08/04 07:35:19;;;;;;;2.65;1.30;;;;;;;;;;5096690;28;20197;-46
2021/08/04 07:37:45;;;;;;;1.73;1.30;;;;;;;;;;5101006;28;20197;-46
2021/08/04 07:40:12;;;;;;;2.72;1.58;;;;;;;;;;5096501;28;20425;-46
2021/08/04 07:42:38;;;;;;;5.25;1.95;;;;;;;;;;5075297;28;20171;-46
2021/08/04 07:45:05;;;;;;;1.63;1.33;;;;;;;;;;5087795;28;20219;-46
2021/08/04 07:47:31;;;;;;;1.83;1.40;;;;;;;;;;5094876;28;20226;-46
2021/08/04 07:49:57;;;;;;;4.15;1.60;;;;;;;;;;5098691;28;20248;-46
2021/08/04 07:52:23;;;;;;;3.40;1.70;;;;;;;;;;5097555;28;20303;-46
2021/08/04 07:54:49;;;;;;;2.60;1.60;;;;;;;;;;5089670;28;20303;-46
2021/08/04 07:57:15;;;;;;;1.60;1.50;;;;;;;;;;5091580;28;20253;-46
2021/08/04 07:59:41;;;;;;;5.00;1.77;;;;;;;;;;5094500;28;20166;-45
2021/08/04 08:02:07;;;;;;;4.47;1.45;;;;;;;;;;5095319;28;20177;-46
2021/08/04 08:04:33;;;;;;;3.17;1.67;;;;;;;;;;5106509;28;20184;-46
2021/08/04 08:07:00;;;;;;;1.60;1.45;;;;;;;;;;5114664;28;20556;-46
2021/08/04 08:09:26;;;;;;;1.80;1.50;;;;;;;;;;5096628;28;20750;-46
2021/08/04 08:11:52;;;;;;;1.80;1.70;;;;;;;;;;5094466;28;20274;-46
2021/08/04 08:14:19;;;;;;;1.60;1.50;;;;;;;;;;5085535;28;20201;-46
2021/08/04 08:16:45;;;;;;;1.67;1.52;;;;;;;;;;5089189;28;20250;-46
2021/08/04 08:19:11;;;;;;;1.67;1.42;;;;;;;;;;5093914;28;20251;-46
2021/08/04 08:21:37;;;;;;;1.88;1.40;;;;;;;;;;5095168;28;20268;-46
2021/08/04 08:24:03;;;;;;;2.08;1.58;;;;;;;;;;5103119;28;20463;-46
2021/08/04 08:26:29;;;;;;;1.92;1.30;;;;;;;;;;5095848;28;20455;-46
2021/08/04 08:28:55;;;;;;;4.25;1.40;;;;;;;;;;5090474;28;20236;-46
2021/08/04 08:31:21;;;;;;;2.42;2.22;;;;;;;;;;5076344;28;20225;-46
2021/08/04 08:33:47;;;;;;;1.83;1.73;;;;;;;;;;5099455;28;20207;-46
2021/08/04 08:36:14;;;;;;;3.22;1.52;;;;;;;;;;5114795;28;20176;-46
2021/08/04 08:38:40;;;;;;;2.05;1.67;;;;;;;;;;5107716;28;20174;-46
2021/08/04 08:41:07;;;;;;;1.67;1.58;;;;;;;;;;5082331;28;20182;-46
2021/08/04 08:43:34;;;;;;;1.65;1.55;;;;;;;;;;5074458;28;20557;-46
2021/08/04 08:46:01;;;;;;;1.63;1.50;;;;;;;;;;5080035;28;20224;-46
2021/08/04 08:48:27;;;;;;;2.00;1.67;;;;;;;;;;5101409;28;20180;-46
2021/08/04 08:50:54;;;;;;;1.60;1.50;;;;;;;;;;5114298;28;20209;-46
2021/08/04 08:53:21;;;;;;;1.40;1.27;;;;;;;;;;5105428;28;20200;-46
2021/08/04 08:55:47;;;;;;;1.40;1.30;;;;;;;;;;5093889;28;20215;-46
2021/08/04 08:58:14;;;;;;;2.05;1.50;;;;;;;;;;5093696;28;20177;-45
2021/08/04 09:00:40;;;;;;;2.20;1.70;;;;;;;;;;5094153;28;20231;-46
2021/08/04 09:03:06;;;;;;;4.35;1.67;;;;;;;;;;5094094;28;20182;-46
2021/08/04 09:05:48;;;;;;;1.58;1.48;;;;;;;;;;5109142;28;20229;-46
2021/08/04 09:08:31;;;;;;;3.30;1.50;;;;;;;;;;5110352;28;20169;-46
2021/08/04 09:11:08;;;;;;;2.65;1.65;;;;;;;;;;5093895;28;20194;-45
2021/08/04 09:13:35;;;;;;;2.75;2.05;;;;;;;;;;5093096;28;20185;-46
2021/08/04 09:16:08;;;;;;;3.20;1.60;;;;;;;;;;5080312;28;20169;-46
2021/08/04 09:18:44;;;;;;;2.63;1.55;;;;;;;;;;5112133;28;20474;-46
2021/08/04 09:21:10;;;;;;;3.80;1.50;;;;;;;;;;5084622;28;20180;-45
2021/08/04 09:23:41;;;;;;;1.65;1.48;;;;;;;;;;5103755;28;20185;-46
2021/08/04 09:26:07;;;;;;;2.00;1.67;;;;;;;;;;5080193;28;20191;-46
2021/08/04 09:28:52;;;;;;;1.58;1.48;;;;;;;;;;5073438;28;20170;-46
2021/08/04 09:31:19;;;;;;;2.20;1.20;;;;;;;;;;5092344;28;20220;-46
2021/08/04 09:33:46;;;;;;;1.13;1.08;;;;;;;;;;5111800;28;20234;-46
2021/08/04 09:36:17;;;;;;;1.20;1.20;;;;;;;;;;5114337;28;20265;-46
2021/08/04 09:39:00;;;;;;;1.35;1.10;;;;;;;;;;5096934;28;20178;-48
2021/08/04 09:41:26;;;;;;;4.43;1.50;;;;;;;;;;5084162;28;20182;-47
2021/08/04 09:44:03;;;;;;;1.73;1.35;;;;;;;;;;5076213;28;20178;-46
2021/08/04 09:46:29;;;;;;;1.40;1.30;;;;;;;;;;5094199;28;20469;-47
2021/08/04 09:48:55;;;;;;;2.60;1.40;;;;;;;;;;5093557;28;20180;-44
2021/08/04 09:51:22;;;;;;;3.22;1.60;;;;;;;;;;5081091;28;20194;-45
2021/08/04 09:53:51;;;;;;;3.78;2.63;;;;;;;;;;5101740;28;20436;-45
2021/08/04 09:56:21;;;;;;;8.15;2.67;;;;;;;;;;5094738;28;20179;-44
2021/08/04 09:58:48;;;;;;;2.90;1.98;;;;;;;;;;5091622;28;20174;-45
2021/08/04 10:01:15;;;;;;;2.65;1.83;;;;;;;;;;5097467;28;20561;-44
2021/08/04 10:04:00;;;;;;;3.83;1.77;;;;;;;;;;5098718;28;20556;-44
2021/08/04 10:06:26;;;;;;;1.95;1.73;;;;;;;;;;5117729;28;20169;-44
2021/08/04 10:08:52;;;;;;;3.35;1.48;;;;;;;;;;5100873;28;20192;-44
2021/08/04 10:11:18;;;;;;;2.03;1.67;;;;;;;;;;5102117;28;20210;-44
2021/08/04 10:13:44;;;;;;;2.25;1.40;;;;;;;;;;5087727;28;20170;-44
2021/08/04 10:16:10;;;;;;;1.63;1.52;;;;;;;;;;5091395;28;20205;-44
2021/08/04 10:18:39;;;;;;;2.65;1.58;;;;;;;;;;5076538;28;20175;-44
2021/08/04 10:21:08;;;;;;;2.13;1.30;;;;;;;;;;5086575;28;20181;-44
2021/08/04 10:23:34;;;;;;;1.45;1.35;;;;;;;;;;5111106;28;20185;-44
2021/08/04 10:26:02;;;;;;;2.03;1.67;;;;;;;;;;5096031;28;20184;-44
2021/08/04 10:28:29;;;;;;;4.22;1.58;;;;;;;;;;5092691;28;20178;-44
2021/08/04 10:30:55;;;;;;;1.40;1.20;;;;;;;;;;5085980;28;20209;-44
2021/08/04 10:33:21;;;;;;;2.10;1.40;;;;;;;;;;5076607;28;20208;-44
2021/08/04 10:35:52;;;;;;;1.92;1.83;;;;;;;;;;5111254;28;20185;-44
2021/08/04 10:38:19;;;;;;;1.63;1.52;;;;;;;;;;5081266;28;20174;-44
2021/08/04 10:40:46;;;;;;;1.95;1.80;;;;;;;;;;5106357;28;20176;-44
2021/08/04 10:43:31;;;;;;;3.83;1.60;;;;;;;;;;5090912;28;20181;-44
2021/08/04 10:45:57;;;;;;;2.17;1.70;;;;;;;;;;5097529;28;20264;-44
2021/08/04 10:48:24;;;;;;;4.65;1.75;;;;;;;;;;5078188;28;20335;-44
2021/08/04 10:51:08;;;;;;;4.72;1.80;;;;;;;;;;5106752;28;20169;-44
2021/08/04 10:53:34;;;;;;;2.88;1.40;;;;;;;;;;5098371;28;20449;-44
2021/08/04 10:56:00;;;;;;;2.00;1.85;;;;;;;;;;5093372;28;20169;-44
2021/08/04 10:58:27;;;;;;;1.92;1.83;;;;;;;;;;5081149;28;20178;-45
2021/08/04 11:00:53;;;;;;;2.75;1.60;;;;;;;;;;5095138;28;20253;-44
2021/08/04 11:03:31;;;;;;;2.03;1.90;;;;;;;;;;5077824;28;20260;-44
2021/08/04 11:06:04;;;;;;;1.55;1.42;;;;;;;;;;5088793;28;20577;-44
2021/08/04 11:08:30;;;;;;;2.88;1.50;;;;;;;;;;5088138;28;20590;-44
2021/08/04 11:10:56;;;;;;;1.30;1.30;;;;;;;;;;5095468;28;20244;-44
2021/08/04 11:13:41;;;;;;;3.95;1.65;;;;;;;;;;5077853;28;20213;-44
2021/08/04 11:16:26;;;;;;;1.70;1.60;;;;;;;;;;5076039;28;20182;-44
2021/08/04 11:19:10;;;;;;;3.83;1.90;;;;;;;;;;5076293;28;20487;-44
2021/08/04 11:21:38;;;;;;;1.70;1.60;;;;;;;;;;5115168;28;20180;-44
2021/08/04 11:24:06;;;;;;;1.88;1.70;;;;;;;;;;5087356;28;20848;-44
2021/08/04 11:26:36;;;;;;;2.15;1.70;;;;;;;;;;5089582;28;20186;-44
2021/08/04 11:29:02;;;;;;;3.75;2.00;;;;;;;;;;5086218;28;20182;-44
2021/08/04 11:31:28;;;;;;;1.85;1.67;;;;;;;;;;5084511;28;20212;-46
2021/08/04 11:33:57;;;;;;;1.98;1.63;;;;;;;;;;5100324;28;20210;-46
2021/08/04 11:36:27;;;;;;;3.25;1.70;;;;;;;;;;5098766;28;20170;-46
2021/08/04 11:38:56;;;;;;;2.08;1.35;;;;;;;;;;5102320;28;20571;-46
2021/08/04 11:41:25;;;;;;;3.78;1.70;;;;;;;;;;5096015;28;20178;-46
2021/08/04 11:43:58;;;;;;;1.80;1.70;;;;;;;;;;5077577;28;20652;-46
2021/08/04 11:46:30;;;;;;;1.45;1.35;;;;;;;;;;5089279;28;20174;-45
2021/08/04 11:48:57;;;;;;;1.77;1.48;;;;;;;;;;5081146;28;20182;-44
2021/08/04 11:51:30;;;;;;;2.35;1.20;;;;;;;;;;5080084;28;20209;-44
2021/08/04 11:53:57;;;;;;;3.15;1.42;;;;;;;;;;5103315;28;20166;-44
2021/08/04 11:56:23;;;;;;;1.38;1.30;;;;;;;;;;5080795;28;20584;-44
2021/08/04 11:58:49;;;;;;;1.60;1.50;;;;;;;;;;5076128;28;20530;-45
2021/08/04 12:01:16;;;;;;;2.30;1.70;;;;;;;;;;5089268;28;20192;-45
2021/08/04 12:03:42;;;;;;;1.95;1.60;;;;;;;;;;5095076;28;20182;-44
2021/08/04 12:06:15;;;;;;;3.00;1.60;;;;;;;;;;5074827;28;20182;-44
2021/08/04 12:08:41;;;;;;;2.97;1.67;;;;;;;;;;5093187;28;20180;-44
2021/08/04 12:11:07;;;;;;;1.92;1.75;;;;;;;;;;5093837;28;20233;-44
2021/08/04 12:13:33;;;;;;;1.83;1.73;;;;;;;;;;5074598;28;20170;-44
2021/08/04 12:16:00;;;;;;;2.35;1.73;;;;;;;;;;5096063;28;20182;-44
2021/08/04 12:18:26;;;;;;;2.80;1.50;;;;;;;;;;5091383;28;20178;-44
2021/08/04 12:20:53;;;;;;;2.53;1.67;;;;;;;;;;5081131;28;20185;-44
2021/08/04 12:23:23;;;;;;;3.35;1.85;;;;;;;;;;5111971;28;20451;-44
2021/08/04 12:25:57;;;;;;;1.90;1.52;;;;;;;;;;5094557;28;20474;-44
2021/08/04 12:28:28;;;;;;;3.05;1.63;;;;;;;;;;5094103;28;20222;-44
2021/08/04 12:30:54;;;;;;;2.08;1.60;;;;;;;;;;5094804;28;20177;-44
2021/08/04 12:33:22;;;;;;;2.60;1.80;;;;;;;;;;5094784;28;20533;-44
2021/08/04 12:38:38;;;;;;;1.80;1.70;;;;;;;;;;5087410;28;20180;-44
2021/08/04 12:41:05;;;;;;;2.03;1.77;;;;;;;;;;5096391;28;20182;-44
2021/08/04 12:43:32;;;;;;;3.65;1.90;;;;;;;;;;5096172;28;20246;-44
2021/08/04 12:45:59;;;;;;;2.92;1.63;;;;;;;;;;5094459;28;20181;-44
2021/08/04 12:48:36;;;;;;;2.72;1.77;;;;;;;;;;5094268;28;20575;-44
2021/08/04 12:51:03;;;;;;;3.17;1.60;;;;;;;;;;5091917;28;20205;-44
2021/08/04 12:53:32;;;;;;;2.00;1.60;;;;;;;;;;5093686;28;21730;-44
2021/08/04 12:56:00;;;;;;;4.75;1.75;;;;;;;;;;5086833;28;20286;-44
2021/08/04 12:58:26;;;;;;;2.28;1.50;;;;;;;;;;5093468;28;20166;-44
2021/08/04 13:00:52;;;;;;;1.88;1.77;;;;;;;;;;5080598;28;20182;-44
2021/08/04 13:03:34;;;;;;;2.70;1.70;;;;;;;;;;5074184;28;20236;-44
2021/08/04 13:06:00;;;;;;;5.60;1.92;;;;;;;;;;5088502;28;20260;-44
2021/08/04 13:08:30;;;;;;;3.58;1.80;;;;;;;;;;5097540;28;20166;-44
2021/08/04 13:10:56;;;;;;;6.20;2.15;;;;;;;;;;5079878;28;20180;-44
2021/08/04 13:13:22;;;;;;;5.60;2.70;;;;;;;;;;5086867;28;20171;-45
2021/08/04 13:15:52;;;;;;;14.13;4.00;;;;;;;;;;5092717;28;20170;-44
2021/08/04 13:18:19;;;;;;;12.35;3.50;;;;;;;;;;5093464;28;20162;-44
2021/08/04 13:20:45;;;;;;;11.98;4.03;;;;;;;;;;5094311;28;20699;-44
2021/08/04 13:23:12;;;;;;;12.80;4.18;;;;;;;;;;5090805;28;20253;-44
2021/08/04 13:25:44;;;;;;;10.93;3.58;;;;;;;;;;5081323;28;20190;-44
2021/08/04 13:28:14;;;;;;;10.07;3.30;;;;;;;;;;5084309;28;20421;-44
2021/08/04 13:30:42;;;;;;;8.60;3.15;;;;;;;;;;5092072;28;20170;-44
2021/08/04 13:33:10;;;;;;;5.93;2.83;;;;;;;;;;5097687;28;20174;-44
2021/08/04 13:35:37;;;;;;;7.22;2.88;;;;;;;;;;5097756;28;20504;-44
2021/08/04 13:38:03;;;;;;;6.43;3.20;;;;;;;;;;5090400;28;20198;-44
2021/08/04 13:40:29;;;;;;;7.47;3.08;;;;;;;;;;5108020;28;20235;-45
2021/08/04 13:42:56;;;;;;;5.07;2.80;;;;;;;;;;5096692;28;20185;-45
2021/08/04 13:45:23;;;;;;;6.95;2.88;;;;;;;;;;5082257;28;20167;-45
2021/08/04 13:47:50;;;;;;;6.57;2.85;;;;;;;;;;5087750;28;20232;-44
2021/08/04 13:50:17;;;;;;;5.57;2.70;;;;;;;;;;5118180;28;20169;-44
2021/08/04 13:52:43;;;;;;;4.30;2.88;;;;;;;;;;5108014;28;20237;-44
2021/08/04 13:55:11;;;;;;;5.65;2.60;;;;;;;;;;5097283;28;20236;-44
2021/08/04 13:57:38;;;;;;;3.28;2.30;;;;;;;;;;5097149;28;20208;-44
2021/08/04 14:00:09;;;;;;;4.22;2.17;;;;;;;;;;5097042;28;20184;-44
2021/08/04 14:02:36;;;;;;;3.53;2.10;;;;;;;;;;5086290;28;20481;-44
2021/08/04 14:05:02;;;;;;;5.45;2.83;;;;;;;;;;5083035;28;20178;-44
2021/08/04 14:07:28;;;;;;;3.75;2.25;;;;;;;;;;5092480;28;20207;-44
2021/08/04 14:09:54;;;;;;;4.30;2.85;;;;;;;;;;5101864;28;20220;-44
2021/08/04 14:12:20;;;;;;;2.30;1.90;;;;;;;;;;5077809;28;20246;-44
2021/08/04 14:14:46;;;;;;;2.33;1.92;;;;;;;;;;5089185;28;20184;-44
2021/08/04 14:17:12;;;;;;;2.45;2.15;;;;;;;;;;5088483;28;20193;-44
2021/08/04 14:19:38;;;;;;;3.13;2.00;;;;;;;;;;5076982;28;20441;-44
2021/08/04 14:22:04;;;;;;;2.25;1.98;;;;;;;;;;5090558;28;20177;-44
2021/08/04 14:24:30;;;;;;;2.13;1.70;;;;;;;;;;5104535;28;20185;-44
2021/08/04 14:26:56;;;;;;;1.60;1.50;;;;;;;;;;5095685;28;20255;-45
2021/08/04 14:29:22;;;;;;;2.25;1.95;;;;;;;;;;5089876;28;20213;-44
2021/08/04 14:31:49;;;;;;;2.38;1.95;;;;;;;;;;5076741;28;20198;-44
2021/08/04 14:34:15;;;;;;;4.35;1.63;;;;;;;;;;5076668;28;20177;-44
2021/08/04 14:36:41;;;;;;;1.80;1.70;;;;;;;;;;5098606;28;20584;-44
2021/08/04 14:39:07;;;;;;;2.05;1.85;;;;;;;;;;5100132;28;20190;-44
2021/08/04 14:41:33;;;;;;;2.28;2.00;;;;;;;;;;5095728;28;20182;-44
2021/08/04 14:43:59;;;;;;;3.22;1.60;;;;;;;;;;5092358;28;20674;-44
2021/08/04 14:46:25;;;;;;;3.25;2.00;;;;;;;;;;5076298;28;20224;-44
2021/08/04 14:48:51;;;;;;;1.50;1.40;;;;;;;;;;5082017;28;20208;-44